sensor_id;sensor_type;location;lat;lon;timestamp;temperature;humidity
72126;SHT31;59999;51.676;22.650;2023-06-05T00:01:56;8.13;80.79
72126;SHT31;59999;51.676;22.650;2023-06-05T00:04:21;8.05;80.42
72126;SHT31;59999;51.676;22.650;2023-06-05T00:06:49;7.97;80.51
72126;SHT31;59999;51.676;22.650;2023-06-05T00:09:16;7.89;80.93
72126;SHT31;59999;51.676;22.650;2023-06-05T00:11:43;7.83;81.45
72126;SHT31;59999;51.676;22.650;2023-06-05T00:14:08;7.77;81.85
72126;SHT31;59999;51.676;22.650;2023-06-05T00:16:35;7.76;82.29
72126;SHT31;59999;51.676;22.650;2023-06-05T00:19:01;7.77;82.36
72126;SHT31;59999;51.676;22.650;2023-06-05T00:21:27;7.77;82.47
72126;SHT31;59999;51.676;22.650;2023-06-05T00:23:54;7.76;82.36
72126;SHT31;59999;51.676;22.650;2023-06-05T00:26:20;7.76;82.44
72126;SHT31;59999;51.676;22.650;2023-06-05T00:28:46;7.73;82.38
72126;SHT31;59999;51.676;22.650;2023-06-05T00:31:13;7.73;82.39
72126;SHT31;59999;51.676;22.650;2023-06-05T00:33:40;7.69;82.29
72126;SHT31;59999;51.676;22.650;2023-06-05T00:36:06;7.65;82.42
72126;SHT31;59999;51.676;22.650;2023-06-05T00:38:32;7.63;82.46
72126;SHT31;59999;51.676;22.650;2023-06-05T00:40:58;7.63;82.58
72126;SHT31;59999;51.676;22.650;2023-06-05T00:43:24;7.61;82.55
72126;SHT31;59999;51.676;22.650;2023-06-05T00:45:56;7.58;82.44
72126;SHT31;59999;51.676;22.650;2023-06-05T00:48:23;7.52;82.24
72126;SHT31;59999;51.676;22.650;2023-06-05T00:50:49;7.49;82.53
72126;SHT31;59999;51.676;22.650;2023-06-05T00:53:15;7.45;82.40
72126;SHT31;59999;51.676;22.650;2023-06-05T00:55:42;7.34;82.36
72126;SHT31;59999;51.676;22.650;2023-06-05T00:58:08;7.27;82.72
72126;SHT31;59999;51.676;22.650;2023-06-05T01:00:34;7.25;83.36
72126;SHT31;59999;51.676;22.650;2023-06-05T01:03:00;7.25;83.46
72126;SHT31;59999;51.676;22.650;2023-06-05T01:05:27;7.25;83.54
72126;SHT31;59999;51.676;22.650;2023-06-05T01:07:54;7.29;83.68
72126;SHT31;59999;51.676;22.650;2023-06-05T01:10:20;7.31;83.37
72126;SHT31;59999;51.676;22.650;2023-06-05T01:15:41;7.22;83.32
72126;SHT31;59999;51.676;22.650;2023-06-05T01:18:08;7.17;83.45
72126;SHT31;59999;51.676;22.650;2023-06-05T01:20:38;7.18;83.69
72126;SHT31;59999;51.676;22.650;2023-06-05T01:23:08;7.17;83.65
72126;SHT31;59999;51.676;22.650;2023-06-05T01:25:35;7.15;83.54
72126;SHT31;59999;51.676;22.650;2023-06-05T01:28:39;7.08;83.59
72126;SHT31;59999;51.676;22.650;2023-06-05T01:31:11;7.11;83.61
72126;SHT31;59999;51.676;22.650;2023-06-05T01:33:59;7.05;83.63
72126;SHT31;59999;51.676;22.650;2023-06-05T01:36:28;7.07;83.70
72126;SHT31;59999;51.676;22.650;2023-06-05T01:38:56;7.07;83.64
72126;SHT31;59999;51.676;22.650;2023-06-05T01:41:24;7.04;83.34
72126;SHT31;59999;51.676;22.650;2023-06-05T01:43:52;7.01;83.41
72126;SHT31;59999;51.676;22.650;2023-06-05T01:46:21;7.00;83.52
72126;SHT31;59999;51.676;22.650;2023-06-05T01:48:47;7.00;83.62
72126;SHT31;59999;51.676;22.650;2023-06-05T01:51:13;6.98;83.63
72126;SHT31;59999;51.676;22.650;2023-06-05T01:53:39;6.94;83.60
72126;SHT31;59999;51.676;22.650;2023-06-05T01:56:05;6.94;83.32
72126;SHT31;59999;51.676;22.650;2023-06-05T01:58:33;6.87;83.20
72126;SHT31;59999;51.676;22.650;2023-06-05T02:00:59;6.81;83.14
72126;SHT31;59999;51.676;22.650;2023-06-05T02:03:25;6.76;83.22
72126;SHT31;59999;51.676;22.650;2023-06-05T02:05:52;6.72;83.29
72126;SHT31;59999;51.676;22.650;2023-06-05T02:08:18;6.67;83.44
72126;SHT31;59999;51.676;22.650;2023-06-05T02:10:46;6.65;83.52
72126;SHT31;59999;51.676;22.650;2023-06-05T02:13:12;6.60;83.77
72126;SHT31;59999;51.676;22.650;2023-06-05T02:15:41;6.62;84.05
72126;SHT31;59999;51.676;22.650;2023-06-05T02:18:07;6.65;84.26
72126;SHT31;59999;51.676;22.650;2023-06-05T02:20:34;6.65;84.19
72126;SHT31;59999;51.676;22.650;2023-06-05T02:23:02;6.69;84.29
72126;SHT31;59999;51.676;22.650;2023-06-05T02:25:28;6.69;84.15
72126;SHT31;59999;51.676;22.650;2023-06-05T02:27:55;6.66;84.11
72126;SHT31;59999;51.676;22.650;2023-06-05T02:30:24;6.70;84.26
72126;SHT31;59999;51.676;22.650;2023-06-05T02:32:51;6.70;84.40
72126;SHT31;59999;51.676;22.650;2023-06-05T02:35:22;6.75;84.50
72126;SHT31;59999;51.676;22.650;2023-06-05T02:37:49;6.76;84.62
72126;SHT31;59999;51.676;22.650;2023-06-05T02:40:15;6.77;84.62
72126;SHT31;59999;51.676;22.650;2023-06-05T02:42:41;6.77;84.48
72126;SHT31;59999;51.676;22.650;2023-06-05T02:45:08;6.75;84.18
72126;SHT31;59999;51.676;22.650;2023-06-05T02:47:34;6.75;84.35
72126;SHT31;59999;51.676;22.650;2023-06-05T02:50:01;6.70;84.25
72126;SHT31;59999;51.676;22.650;2023-06-05T02:52:28;6.72;84.48
72126;SHT31;59999;51.676;22.650;2023-06-05T02:54:54;6.69;84.62
72126;SHT31;59999;51.676;22.650;2023-06-05T02:57:19;6.72;84.61
72126;SHT31;59999;51.676;22.650;2023-06-05T02:59:45;6.76;84.64
72126;SHT31;59999;51.676;22.650;2023-06-05T03:02:11;6.79;84.50
72126;SHT31;59999;51.676;22.650;2023-06-05T03:04:38;6.79;84.33
72126;SHT31;59999;51.676;22.650;2023-06-05T03:07:08;6.83;84.28
72126;SHT31;59999;51.676;22.650;2023-06-05T03:09:35;6.81;84.30
72126;SHT31;59999;51.676;22.650;2023-06-05T03:12:02;6.86;84.29
72126;SHT31;59999;51.676;22.650;2023-06-05T03:14:28;6.88;84.31
72126;SHT31;59999;51.676;22.650;2023-06-05T03:16:56;6.93;84.42
72126;SHT31;59999;51.676;22.650;2023-06-05T03:19:24;6.96;84.50
72126;SHT31;59999;51.676;22.650;2023-06-05T03:21:50;7.04;84.64
72126;SHT31;59999;51.676;22.650;2023-06-05T03:24:17;7.09;84.91
72126;SHT31;59999;51.676;22.650;2023-06-05T03:26:43;7.15;84.97
72126;SHT31;59999;51.676;22.650;2023-06-05T03:29:10;7.28;85.18
72126;SHT31;59999;51.676;22.650;2023-06-05T03:31:37;7.35;85.29
72126;SHT31;59999;51.676;22.650;2023-06-05T03:34:03;7.44;85.26
72126;SHT31;59999;51.676;22.650;2023-06-05T03:36:30;7.54;85.33
72126;SHT31;59999;51.676;22.650;2023-06-05T03:38:56;7.65;85.22
72126;SHT31;59999;51.676;22.650;2023-06-05T03:41:23;7.70;85.11
72126;SHT31;59999;51.676;22.650;2023-06-05T03:43:49;7.80;84.98
72126;SHT31;59999;51.676;22.650;2023-06-05T03:46:18;7.90;84.97
72126;SHT31;59999;51.676;22.650;2023-06-05T03:48:46;8.01;85.13
72126;SHT31;59999;51.676;22.650;2023-06-05T03:51:12;8.13;85.10
72126;SHT31;59999;51.676;22.650;2023-06-05T03:53:39;8.25;85.06
72126;SHT31;59999;51.676;22.650;2023-06-05T03:56:08;8.35;84.88
72126;SHT31;59999;51.676;22.650;2023-06-05T03:58:35;8.54;84.45
72126;SHT31;59999;51.676;22.650;2023-06-05T04:01:01;8.68;83.96
72126;SHT31;59999;51.676;22.650;2023-06-05T04:03:27;8.83;83.80
72126;SHT31;59999;51.676;22.650;2023-06-05T04:05:54;9.02;83.53
72126;SHT31;59999;51.676;22.650;2023-06-05T04:08:20;9.19;83.13
72126;SHT31;59999;51.676;22.650;2023-06-05T04:10:46;9.34;82.58
72126;SHT31;59999;51.676;22.650;2023-06-05T04:13:12;9.54;82.01
72126;SHT31;59999;51.676;22.650;2023-06-05T04:15:38;9.75;80.72
72126;SHT31;59999;51.676;22.650;2023-06-05T04:18:04;9.95;79.29
72126;SHT31;59999;51.676;22.650;2023-06-05T04:20:30;10.14;78.82
72126;SHT31;59999;51.676;22.650;2023-06-05T04:22:56;10.34;78.37
72126;SHT31;59999;51.676;22.650;2023-06-05T04:25:22;10.58;76.93
72126;SHT31;59999;51.676;22.650;2023-06-05T04:27:49;10.81;76.07
72126;SHT31;59999;51.676;22.650;2023-06-05T04:30:15;11.04;75.54
72126;SHT31;59999;51.676;22.650;2023-06-05T04:32:42;11.23;74.85
72126;SHT31;59999;51.676;22.650;2023-06-05T04:35:09;11.49;74.58
72126;SHT31;59999;51.676;22.650;2023-06-05T04:37:36;11.73;74.77
72126;SHT31;59999;51.676;22.650;2023-06-05T04:40:03;11.93;74.20
72126;SHT31;59999;51.676;22.650;2023-06-05T04:42:36;12.17;73.37
72126;SHT31;59999;51.676;22.650;2023-06-05T04:45:04;12.42;72.50
72126;SHT31;59999;51.676;22.650;2023-06-05T04:47:31;12.62;71.76
72126;SHT31;59999;51.676;22.650;2023-06-05T04:50:05;12.81;70.21
72126;SHT31;59999;51.676;22.650;2023-06-05T04:52:34;12.99;68.82
72126;SHT31;59999;51.676;22.650;2023-06-05T04:55:06;13.17;67.56
72126;SHT31;59999;51.676;22.650;2023-06-05T04:57:32;13.37;66.68
72126;SHT31;59999;51.676;22.650;2023-06-05T04:59:58;13.47;64.79
72126;SHT31;59999;51.676;22.650;2023-06-05T05:02:24;13.66;64.01
72126;SHT31;59999;51.676;22.650;2023-06-05T05:04:50;13.82;63.08
72126;SHT31;59999;51.676;22.650;2023-06-05T05:07:17;13.97;61.97
72126;SHT31;59999;51.676;22.650;2023-06-05T05:09:43;14.17;62.18
72126;SHT31;59999;51.676;22.650;2023-06-05T05:12:10;14.38;62.12
72126;SHT31;59999;51.676;22.650;2023-06-05T05:14:36;14.54;61.86
72126;SHT31;59999;51.676;22.650;2023-06-05T05:17:03;14.72;62.11
72126;SHT31;59999;51.676;22.650;2023-06-05T05:19:29;14.89;61.69
72126;SHT31;59999;51.676;22.650;2023-06-05T05:21:56;15.09;61.14
72126;SHT31;59999;51.676;22.650;2023-06-05T05:24:23;15.26;60.67
72126;SHT31;59999;51.676;22.650;2023-06-05T05:26:51;15.44;60.08
72126;SHT31;59999;51.676;22.650;2023-06-05T05:29:17;15.62;59.61
72126;SHT31;59999;51.676;22.650;2023-06-05T05:31:44;15.75;58.49
72126;SHT31;59999;51.676;22.650;2023-06-05T05:34:10;15.90;60.64
72126;SHT31;59999;51.676;22.650;2023-06-05T05:36:36;16.06;60.84
72126;SHT31;59999;51.676;22.650;2023-06-05T05:39:03;16.25;61.34
72126;SHT31;59999;51.676;22.650;2023-06-05T05:41:29;16.43;60.67
72126;SHT31;59999;51.676;22.650;2023-06-05T05:43:55;16.57;60.30
72126;SHT31;59999;51.676;22.650;2023-06-05T05:46:21;16.74;60.51
72126;SHT31;59999;51.676;22.650;2023-06-05T05:48:47;16.92;60.62
72126;SHT31;59999;51.676;22.650;2023-06-05T05:51:13;17.07;60.68
72126;SHT31;59999;51.676;22.650;2023-06-05T05:53:39;17.21;59.69
72126;SHT31;59999;51.676;22.650;2023-06-05T05:56:05;17.34;56.79
72126;SHT31;59999;51.676;22.650;2023-06-05T05:58:31;17.46;57.14
72126;SHT31;59999;51.676;22.650;2023-06-05T06:00:57;17.59;56.72
72126;SHT31;59999;51.676;22.650;2023-06-05T06:03:25;17.72;56.43
72126;SHT31;59999;51.676;22.650;2023-06-05T06:05:54;17.84;56.38
72126;SHT31;59999;51.676;22.650;2023-06-05T06:08:22;17.93;56.04
72126;SHT31;59999;51.676;22.650;2023-06-05T06:10:48;17.98;54.81
72126;SHT31;59999;51.676;22.650;2023-06-05T06:13:14;18.05;54.53
72126;SHT31;59999;51.676;22.650;2023-06-05T06:15:40;18.13;54.89
72126;SHT31;59999;51.676;22.650;2023-06-05T06:18:06;18.23;53.95
72126;SHT31;59999;51.676;22.650;2023-06-05T06:20:32;18.34;53.58
72126;SHT31;59999;51.676;22.650;2023-06-05T06:23:01;18.47;52.00
72126;SHT31;59999;51.676;22.650;2023-06-05T06:25:28;18.58;51.96
72126;SHT31;59999;51.676;22.650;2023-06-05T06:28:00;18.73;51.49
72126;SHT31;59999;51.676;22.650;2023-06-05T06:30:27;18.86;48.97
72126;SHT31;59999;51.676;22.650;2023-06-05T06:32:56;18.96;49.00
72126;SHT31;59999;51.676;22.650;2023-06-05T06:35:24;19.11;48.56
72126;SHT31;59999;51.676;22.650;2023-06-05T06:37:53;19.23;47.67
72126;SHT31;59999;51.676;22.650;2023-06-05T06:40:23;19.40;47.52
72126;SHT31;59999;51.676;22.650;2023-06-05T06:42:49;19.47;45.69
72126;SHT31;59999;51.676;22.650;2023-06-05T06:45:17;19.62;46.85
72126;SHT31;59999;51.676;22.650;2023-06-05T06:47:43;19.71;47.02
72126;SHT31;59999;51.676;22.650;2023-06-05T06:50:10;19.85;46.62
72126;SHT31;59999;51.676;22.650;2023-06-05T06:52:35;19.90;47.50
72126;SHT31;59999;51.676;22.650;2023-06-05T06:55:02;19.99;47.70
72126;SHT31;59999;51.676;22.650;2023-06-05T06:57:28;20.08;47.25
72126;SHT31;59999;51.676;22.650;2023-06-05T06:59:54;20.06;47.18
72126;SHT31;59999;51.676;22.650;2023-06-05T07:02:22;20.12;47.34
72126;SHT31;59999;51.676;22.650;2023-06-05T07:04:48;20.22;45.16
72126;SHT31;59999;51.676;22.650;2023-06-05T07:07:16;20.30;44.35
72126;SHT31;59999;51.676;22.650;2023-06-05T07:09:44;20.43;43.76
72126;SHT31;59999;51.676;22.650;2023-06-05T07:12:14;20.51;43.59
72126;SHT31;59999;51.676;22.650;2023-06-05T07:14:41;20.58;42.90
72126;SHT31;59999;51.676;22.650;2023-06-05T07:17:07;20.64;42.44
72126;SHT31;59999;51.676;22.650;2023-06-05T07:19:34;20.70;38.64
72126;SHT31;59999;51.676;22.650;2023-06-05T07:22:03;20.80;40.10
72126;SHT31;59999;51.676;22.650;2023-06-05T07:24:33;20.90;40.23
72126;SHT31;59999;51.676;22.650;2023-06-05T07:27:04;21.01;39.45
72126;SHT31;59999;51.676;22.650;2023-06-05T07:29:31;21.05;38.20
72126;SHT31;59999;51.676;22.650;2023-06-05T07:31:58;21.12;37.91
72126;SHT31;59999;51.676;22.650;2023-06-05T07:34:25;21.18;38.15
72126;SHT31;59999;51.676;22.650;2023-06-05T07:36:52;21.15;36.58
72126;SHT31;59999;51.676;22.650;2023-06-05T07:39:20;21.08;35.62
72126;SHT31;59999;51.676;22.650;2023-06-05T07:41:46;21.09;33.43
72126;SHT31;59999;51.676;22.650;2023-06-05T07:44:14;20.85;34.08
72126;SHT31;59999;51.676;22.650;2023-06-05T07:46:41;20.84;35.77
72126;SHT31;59999;51.676;22.650;2023-06-05T07:49:08;20.96;34.96
72126;SHT31;59999;51.676;22.650;2023-06-05T07:51:35;21.09;34.37
72126;SHT31;59999;51.676;22.650;2023-06-05T07:54:04;21.19;34.00
72126;SHT31;59999;51.676;22.650;2023-06-05T07:56:31;21.08;31.63
72126;SHT31;59999;51.676;22.650;2023-06-05T07:58:58;21.06;33.48
72126;SHT31;59999;51.676;22.650;2023-06-05T08:01:23;21.15;31.92
72126;SHT31;59999;51.676;22.650;2023-06-05T08:03:50;21.25;31.92
72126;SHT31;59999;51.676;22.650;2023-06-05T08:06:15;21.35;31.18
72126;SHT31;59999;51.676;22.650;2023-06-05T08:08:42;21.45;30.97
72126;SHT31;59999;51.676;22.650;2023-06-05T08:11:09;21.38;31.06
72126;SHT31;59999;51.676;22.650;2023-06-05T08:13:39;21.28;32.01
72126;SHT31;59999;51.676;22.650;2023-06-05T08:16:06;21.28;31.20
72126;SHT31;59999;51.676;22.650;2023-06-05T08:18:32;21.29;30.99
72126;SHT31;59999;51.676;22.650;2023-06-05T08:20:59;21.36;31.10
72126;SHT31;59999;51.676;22.650;2023-06-05T08:23:24;21.45;31.14
72126;SHT31;59999;51.676;22.650;2023-06-05T08:25:53;21.50;32.31
72126;SHT31;59999;51.676;22.650;2023-06-05T08:28:20;21.50;32.37
72126;SHT31;59999;51.676;22.650;2023-06-05T08:30:46;21.43;32.31
72126;SHT31;59999;51.676;22.650;2023-06-05T08:33:12;21.47;32.06
72126;SHT31;59999;51.676;22.650;2023-06-05T08:35:40;21.56;31.36
72126;SHT31;59999;51.676;22.650;2023-06-05T08:38:06;21.64;32.53
72126;SHT31;59999;51.676;22.650;2023-06-05T08:40:33;21.71;31.85
72126;SHT31;59999;51.676;22.650;2023-06-05T08:43:00;21.80;32.63
72126;SHT31;59999;51.676;22.650;2023-06-05T08:45:27;21.87;31.63
72126;SHT31;59999;51.676;22.650;2023-06-05T08:47:54;21.84;29.98
72126;SHT31;59999;51.676;22.650;2023-06-05T08:50:21;21.89;31.46
72126;SHT31;59999;51.676;22.650;2023-06-05T08:52:47;21.90;31.86
72126;SHT31;59999;51.676;22.650;2023-06-05T08:55:15;21.96;33.07
72126;SHT31;59999;51.676;22.650;2023-06-05T08:57:42;22.00;33.30
72126;SHT31;59999;51.676;22.650;2023-06-05T09:00:09;21.94;30.71
72126;SHT31;59999;51.676;22.650;2023-06-05T09:02:40;21.93;32.26
72126;SHT31;59999;51.676;22.650;2023-06-05T09:05:09;21.93;30.01
72126;SHT31;59999;51.676;22.650;2023-06-05T09:07:35;21.81;30.45
72126;SHT31;59999;51.676;22.650;2023-06-05T09:10:05;21.83;32.18
72126;SHT31;59999;51.676;22.650;2023-06-05T09:12:32;21.90;32.81
72126;SHT31;59999;51.676;22.650;2023-06-05T09:14:58;22.00;31.80
72126;SHT31;59999;51.676;22.650;2023-06-05T09:17:24;22.05;30.69
72126;SHT31;59999;51.676;22.650;2023-06-05T09:19:51;22.14;31.82
72126;SHT31;59999;51.676;22.650;2023-06-05T09:22:31;22.21;31.06
72126;SHT31;59999;51.676;22.650;2023-06-05T09:24:59;22.27;32.32
72126;SHT31;59999;51.676;22.650;2023-06-05T09:27:26;22.29;31.80
72126;SHT31;59999;51.676;22.650;2023-06-05T09:30:02;22.17;32.16
72126;SHT31;59999;51.676;22.650;2023-06-05T09:32:29;22.20;32.37
72126;SHT31;59999;51.676;22.650;2023-06-05T09:34:56;22.29;31.72
72126;SHT31;59999;51.676;22.650;2023-06-05T09:37:35;22.41;32.76
72126;SHT31;59999;51.676;22.650;2023-06-05T09:40:03;22.47;31.69
72126;SHT31;59999;51.676;22.650;2023-06-05T09:42:34;22.51;32.58
72126;SHT31;59999;51.676;22.650;2023-06-05T09:45:02;22.49;30.89
72126;SHT31;59999;51.676;22.650;2023-06-05T09:47:27;22.42;30.04
72126;SHT31;59999;51.676;22.650;2023-06-05T09:49:54;22.42;29.51
72126;SHT31;59999;51.676;22.650;2023-06-05T09:52:20;22.45;31.21
72126;SHT31;59999;51.676;22.650;2023-06-05T09:54:46;22.42;29.97
72126;SHT31;59999;51.676;22.650;2023-06-05T09:57:14;22.41;31.48
72126;SHT31;59999;51.676;22.650;2023-06-05T09:59:52;22.31;31.89
72126;SHT31;59999;51.676;22.650;2023-06-05T10:02:23;22.29;32.78
72126;SHT31;59999;51.676;22.650;2023-06-05T10:04:59;22.35;32.45
72126;SHT31;59999;51.676;22.650;2023-06-05T10:07:25;22.38;31.09
72126;SHT31;59999;51.676;22.650;2023-06-05T10:09:53;22.32;31.05
72126;SHT31;59999;51.676;22.650;2023-06-05T10:12:19;22.39;31.10
72126;SHT31;59999;51.676;22.650;2023-06-05T10:14:47;22.49;32.50
72126;SHT31;59999;51.676;22.650;2023-06-05T10:17:15;22.56;30.24
72126;SHT31;59999;51.676;22.650;2023-06-05T10:19:42;22.59;30.13
72126;SHT31;59999;51.676;22.650;2023-06-05T10:22:10;22.58;29.63
72126;SHT31;59999;51.676;22.650;2023-06-05T10:24:50;22.47;29.46
72126;SHT31;59999;51.676;22.650;2023-06-05T10:27:39;22.41;29.72
72126;SHT31;59999;51.676;22.650;2023-06-05T10:39:08;22.87;30.54
72126;SHT31;59999;51.676;22.650;2023-06-05T10:41:36;22.85;29.06
72126;SHT31;59999;51.676;22.650;2023-06-05T10:44:02;22.90;30.43
72126;SHT31;59999;51.676;22.650;2023-06-05T10:46:30;22.97;30.38
72126;SHT31;59999;51.676;22.650;2023-06-05T10:49:16;23.02;30.23
72126;SHT31;59999;51.676;22.650;2023-06-05T10:51:46;23.08;30.40
72126;SHT31;59999;51.676;22.650;2023-06-05T10:59:45;23.27;31.04
72126;SHT31;59999;51.676;22.650;2023-06-05T11:07:20;23.40;31.01
72126;SHT31;59999;51.676;22.650;2023-06-05T11:15:04;23.41;30.53
72126;SHT31;59999;51.676;22.650;2023-06-05T11:17:35;23.43;30.07
72126;SHT31;59999;51.676;22.650;2023-06-05T11:20:02;23.43;31.50
72126;SHT31;59999;51.676;22.650;2023-06-05T11:22:33;23.48;30.37
72126;SHT31;59999;51.676;22.650;2023-06-05T11:30:26;23.34;30.41
72126;SHT31;59999;51.676;22.650;2023-06-05T11:32:54;23.35;29.99
72126;SHT31;59999;51.676;22.650;2023-06-05T11:35:27;23.40;31.47
72126;SHT31;59999;51.676;22.650;2023-06-05T11:40:44;23.31;31.49
72126;SHT31;59999;51.676;22.650;2023-06-05T11:43:12;23.18;30.03
72126;SHT31;59999;51.676;22.650;2023-06-05T11:45:40;23.04;31.06
72126;SHT31;59999;51.676;22.650;2023-06-05T11:48:11;23.07;30.38
72126;SHT31;59999;51.676;22.650;2023-06-05T11:50:40;23.16;30.90
72126;SHT31;59999;51.676;22.650;2023-06-05T11:53:18;23.33;31.39
72126;SHT31;59999;51.676;22.650;2023-06-05T11:55:44;23.44;31.57
72126;SHT31;59999;51.676;22.650;2023-06-05T11:58:34;23.61;32.05
72126;SHT31;59999;51.676;22.650;2023-06-05T12:03:38;23.79;30.18
72126;SHT31;59999;51.676;22.650;2023-06-05T12:06:05;23.88;30.62
72126;SHT31;59999;51.676;22.650;2023-06-05T12:08:32;23.93;30.65
72126;SHT31;59999;51.676;22.650;2023-06-05T12:10:59;24.01;31.85
72126;SHT31;59999;51.676;22.650;2023-06-05T12:13:45;24.09;30.29
72126;SHT31;59999;51.676;22.650;2023-06-05T12:16:12;24.16;31.77
72126;SHT31;59999;51.676;22.650;2023-06-05T12:18:39;24.10;31.50
72126;SHT31;59999;51.676;22.650;2023-06-05T12:21:05;24.13;31.43
72126;SHT31;59999;51.676;22.650;2023-06-05T12:23:32;24.23;32.20
72126;SHT31;59999;51.676;22.650;2023-06-05T12:25:59;24.30;31.33
72126;SHT31;59999;51.676;22.650;2023-06-05T12:28:27;24.36;32.19
72126;SHT31;59999;51.676;22.650;2023-06-05T12:30:54;24.34;30.36
72126;SHT31;59999;51.676;22.650;2023-06-05T12:33:20;24.40;30.85
72126;SHT31;59999;51.676;22.650;2023-06-05T12:35:46;24.40;30.36
72126;SHT31;59999;51.676;22.650;2023-06-05T12:38:13;24.44;31.71
72126;SHT31;59999;51.676;22.650;2023-06-05T12:40:39;24.51;30.52
72126;SHT31;59999;51.676;22.650;2023-06-05T12:43:16;24.56;30.50
72126;SHT31;59999;51.676;22.650;2023-06-05T12:45:45;24.53;29.25
72126;SHT31;59999;51.676;22.650;2023-06-05T12:48:11;24.50;29.51
72126;SHT31;59999;51.676;22.650;2023-06-05T12:50:38;24.50;29.53
72126;SHT31;59999;51.676;22.650;2023-06-05T12:53:07;24.53;30.26
72126;SHT31;59999;51.676;22.650;2023-06-05T12:55:33;24.54;30.08
72126;SHT31;59999;51.676;22.650;2023-06-05T12:57:59;24.39;28.50
72126;SHT31;59999;51.676;22.650;2023-06-05T13:00:25;24.44;30.64
72126;SHT31;59999;51.676;22.650;2023-06-05T13:02:51;24.44;30.20
72126;SHT31;59999;51.676;22.650;2023-06-05T13:05:17;24.49;30.01
72126;SHT31;59999;51.676;22.650;2023-06-05T13:07:43;24.50;31.21
72126;SHT31;59999;51.676;22.650;2023-06-05T13:10:10;24.50;30.61
72126;SHT31;59999;51.676;22.650;2023-06-05T13:12:39;24.49;30.06
72126;SHT31;59999;51.676;22.650;2023-06-05T13:15:05;24.47;28.68
72126;SHT31;59999;51.676;22.650;2023-06-05T13:17:32;24.39;28.46
72126;SHT31;59999;51.676;22.650;2023-06-05T13:19:59;24.32;30.16
72126;SHT31;59999;51.676;22.650;2023-06-05T13:22:26;24.32;29.48
72126;SHT31;59999;51.676;22.650;2023-06-05T13:24:52;24.32;31.26
72126;SHT31;59999;51.676;22.650;2023-06-05T13:27:18;24.32;28.30
72126;SHT31;59999;51.676;22.650;2023-06-05T13:29:45;24.26;28.75
72126;SHT31;59999;51.676;22.650;2023-06-05T13:32:11;24.20;28.73
72126;SHT31;59999;51.676;22.650;2023-06-05T13:34:37;24.22;30.36
72126;SHT31;59999;51.676;22.650;2023-06-05T13:37:03;24.30;30.05
72126;SHT31;59999;51.676;22.650;2023-06-05T13:39:29;24.12;30.74
72126;SHT31;59999;51.676;22.650;2023-06-05T13:41:55;23.95;30.63
72126;SHT31;59999;51.676;22.650;2023-06-05T13:44:21;24.06;29.32
72126;SHT31;59999;51.676;22.650;2023-06-05T13:46:47;24.24;29.65
72126;SHT31;59999;51.676;22.650;2023-06-05T13:49:13;24.47;29.34
72126;SHT31;59999;51.676;22.650;2023-06-05T13:51:39;24.64;28.50
72126;SHT31;59999;51.676;22.650;2023-06-05T13:54:05;24.92;28.61
72126;SHT31;59999;51.676;22.650;2023-06-05T13:56:31;25.25;29.28
72126;SHT31;59999;51.676;22.650;2023-06-05T13:58:57;25.70;29.09
72126;SHT31;59999;51.676;22.650;2023-06-05T14:01:24;26.20;27.79
72126;SHT31;59999;51.676;22.650;2023-06-05T14:03:50;26.68;29.03
72126;SHT31;59999;51.676;22.650;2023-06-05T14:06:17;27.04;25.90
72126;SHT31;59999;51.676;22.650;2023-06-05T14:08:44;27.33;26.24
72126;SHT31;59999;51.676;22.650;2023-06-05T14:11:11;27.35;24.77
72126;SHT31;59999;51.676;22.650;2023-06-05T14:13:37;27.26;25.15
72126;SHT31;59999;51.676;22.650;2023-06-05T14:16:03;27.26;25.12
72126;SHT31;59999;51.676;22.650;2023-06-05T14:18:30;26.87;24.45
72126;SHT31;59999;51.676;22.650;2023-06-05T14:20:56;26.94;25.71
72126;SHT31;59999;51.676;22.650;2023-06-05T14:23:22;27.51;24.00
72126;SHT31;59999;51.676;22.650;2023-06-05T14:25:50;27.99;23.73
72126;SHT31;59999;51.676;22.650;2023-06-05T14:28:15;28.53;23.99
72126;SHT31;59999;51.676;22.650;2023-06-05T14:30:42;28.71;22.91
72126;SHT31;59999;51.676;22.650;2023-06-05T14:33:07;28.32;23.91
72126;SHT31;59999;51.676;22.650;2023-06-05T14:35:34;28.36;22.23
72126;SHT31;59999;51.676;22.650;2023-06-05T14:38:00;28.60;23.43
72126;SHT31;59999;51.676;22.650;2023-06-05T14:40:26;29.18;23.40
72126;SHT31;59999;51.676;22.650;2023-06-05T14:42:52;29.16;23.31
72126;SHT31;59999;51.676;22.650;2023-06-05T14:45:19;29.66;22.72
72126;SHT31;59999;51.676;22.650;2023-06-05T14:47:44;30.24;22.18
72126;SHT31;59999;51.676;22.650;2023-06-05T14:50:12;30.08;21.78
72126;SHT31;59999;51.676;22.650;2023-06-05T14:52:38;30.21;21.89
72126;SHT31;59999;51.676;22.650;2023-06-05T14:55:05;30.75;21.55
72126;SHT31;59999;51.676;22.650;2023-06-05T14:57:31;30.89;20.93
72126;SHT31;59999;51.676;22.650;2023-06-05T14:59:58;31.34;20.54
72126;SHT31;59999;51.676;22.650;2023-06-05T15:02:23;31.76;20.11
72126;SHT31;59999;51.676;22.650;2023-06-05T15:04:50;31.69;20.74
72126;SHT31;59999;51.676;22.650;2023-06-05T15:07:19;31.89;19.45
72126;SHT31;59999;51.676;22.650;2023-06-05T15:09:48;32.20;19.49
72126;SHT31;59999;51.676;22.650;2023-06-05T15:12:14;32.40;19.25
72126;SHT31;59999;51.676;22.650;2023-06-05T15:14:41;32.74;19.29
72126;SHT31;59999;51.676;22.650;2023-06-05T15:17:06;32.89;18.88
72126;SHT31;59999;51.676;22.650;2023-06-05T15:19:34;33.25;18.28
72126;SHT31;59999;51.676;22.650;2023-06-05T15:22:00;33.45;18.68
72126;SHT31;59999;51.676;22.650;2023-06-05T15:24:27;33.49;18.70
72126;SHT31;59999;51.676;22.650;2023-06-05T15:26:53;33.86;19.58
72126;SHT31;59999;51.676;22.650;2023-06-05T15:29:20;34.20;18.48
72126;SHT31;59999;51.676;22.650;2023-06-05T15:31:46;34.48;17.48
72126;SHT31;59999;51.676;22.650;2023-06-05T15:34:12;34.69;17.72
72126;SHT31;59999;51.676;22.650;2023-06-05T15:36:38;34.68;17.28
72126;SHT31;59999;51.676;22.650;2023-06-05T15:39:04;34.14;17.65
72126;SHT31;59999;51.676;22.650;2023-06-05T15:41:30;34.04;18.07
72126;SHT31;59999;51.676;22.650;2023-06-05T15:43:56;34.23;17.58
72126;SHT31;59999;51.676;22.650;2023-06-05T15:46:22;34.29;17.69
72126;SHT31;59999;51.676;22.650;2023-06-05T15:48:49;33.98;17.76
72126;SHT31;59999;51.676;22.650;2023-06-05T15:51:16;33.89;18.89
72126;SHT31;59999;51.676;22.650;2023-06-05T15:53:42;33.80;18.72
72126;SHT31;59999;51.676;22.650;2023-06-05T15:56:08;33.78;18.57
72126;SHT31;59999;51.676;22.650;2023-06-05T15:58:34;33.80;18.26
72126;SHT31;59999;51.676;22.650;2023-06-05T16:01:00;33.84;18.19